createdAt,value
2023-04-08T00:01:47.352Z,9.73
2023-04-08T00:04:14.543Z,9.60
2023-04-08T00:06:40.941Z,8.83
2023-04-08T00:09:07.190Z,9.73
2023-04-08T00:11:33.507Z,9.20
2023-04-08T00:14:00.255Z,10.27
2023-04-08T00:16:26.544Z,10.37
2023-04-08T00:18:52.927Z,11.37
2023-04-08T00:21:20.821Z,12.30
2023-04-08T00:23:47.423Z,12.93
2023-04-08T00:26:13.674Z,13.07
2023-04-08T00:28:39.957Z,12.53
2023-04-08T00:31:06.293Z,13.27
2023-04-08T00:33:33.695Z,12.23
2023-04-08T00:36:00.015Z,13.47
2023-04-08T00:38:26.576Z,13.20
2023-04-08T00:40:52.841Z,13.63
2023-04-08T00:43:21.215Z,14.70
2023-04-08T00:45:47.957Z,15.23
2023-04-08T00:48:14.232Z,16.00
2023-04-08T00:50:40.611Z,16.50
2023-04-08T00:53:06.856Z,17.23
2023-04-08T00:55:33.104Z,16.63
2023-04-08T00:57:59.385Z,16.60
2023-04-08T01:00:26.221Z,16.27
2023-04-08T01:03:01.976Z,15.53
2023-04-08T01:05:47.383Z,16.63
2023-04-08T01:08:14.437Z,16.13
2023-04-08T01:10:42.979Z,15.80
2023-04-08T01:13:11.882Z,17.87
2023-04-08T01:15:42.312Z,16.03
2023-04-08T01:18:10.540Z,16.10
2023-04-08T01:20:37.094Z,16.47
2023-04-08T01:23:08.344Z,16.40
2023-04-08T01:25:35.683Z,17.37
2023-04-08T01:28:05.255Z,18.10
2023-04-08T01:30:32.442Z,18.07
2023-04-08T01:32:59.518Z,18.90
2023-04-08T01:35:26.118Z,18.93
2023-04-08T01:37:53.839Z,18.23
2023-04-08T01:40:20.356Z,18.77
2023-04-08T01:42:51.296Z,19.90
2023-04-08T01:45:18.327Z,18.30
2023-04-08T01:47:49.390Z,19.23
2023-04-08T01:50:16.506Z,18.67
2023-04-08T01:52:47.554Z,18.93
2023-04-08T01:55:13.882Z,19.73
2023-04-08T01:57:41.634Z,19.10
2023-04-08T02:00:10.138Z,19.93
2023-04-08T02:02:37.024Z,18.50
2023-04-08T02:05:03.613Z,19.60
2023-04-08T02:07:29.844Z,19.60
2023-04-08T02:09:56.387Z,19.53
2023-04-08T02:12:22.909Z,20.10
2023-04-08T02:14:49.441Z,20.30
2023-04-08T02:17:21.148Z,20.00
2023-04-08T02:20:06.509Z,19.63
2023-04-08T02:22:41.760Z,20.23
2023-04-08T02:25:08.707Z,19.67
2023-04-08T02:27:35.920Z,19.47
2023-04-08T02:30:04.408Z,19.87
2023-04-08T02:32:31.334Z,20.40
2023-04-08T02:34:59.524Z,19.97
2023-04-08T02:37:25.941Z,19.23
2023-04-08T02:39:52.247Z,20.43
2023-04-08T02:42:18.567Z,19.33
2023-04-08T02:44:44.907Z,19.97
2023-04-08T02:47:11.147Z,20.10
2023-04-08T02:49:37.384Z,18.67
2023-04-08T02:52:04.181Z,20.47
2023-04-08T02:54:30.632Z,19.33
2023-04-08T02:56:56.896Z,19.60
2023-04-08T02:59:23.269Z,20.03
2023-04-08T03:01:49.614Z,19.57
2023-04-08T03:04:15.897Z,21.00
2023-04-08T03:06:42.167Z,19.40
2023-04-08T03:09:08.447Z,20.20
2023-04-08T03:11:34.729Z,20.27
2023-04-08T03:14:01.196Z,19.23
2023-04-08T03:16:27.547Z,20.60
2023-04-08T03:18:54.596Z,20.97
2023-04-08T03:21:20.955Z,20.00
2023-04-08T03:23:47.227Z,21.10
2023-04-08T03:26:13.533Z,20.90
2023-04-08T03:28:39.799Z,20.13
2023-04-08T03:31:06.361Z,19.50
2023-04-08T03:33:32.778Z,20.57
2023-04-08T03:35:59.048Z,19.63
2023-04-08T03:38:25.338Z,20.57
2023-04-08T03:40:51.638Z,21.53
2023-04-08T03:43:19.585Z,20.53
2023-04-08T03:45:45.825Z,19.87
2023-04-08T03:48:12.074Z,21.13
2023-04-08T03:50:38.529Z,20.83
2023-04-08T03:53:04.864Z,20.87
2023-04-08T03:55:31.114Z,21.27
2023-04-08T03:57:57.352Z,20.63
2023-04-08T04:00:23.827Z,21.77
2023-04-08T04:02:50.264Z,21.50
2023-04-08T04:05:16.625Z,21.73
2023-04-08T04:07:42.884Z,22.27
2023-04-08T04:10:10.360Z,21.77
2023-04-08T04:12:36.636Z,22.50
2023-04-08T04:15:03.122Z,20.97
2023-04-08T04:17:29.401Z,22.40
2023-04-08T04:19:55.681Z,21.57
2023-04-08T04:22:21.944Z,22.20
2023-04-08T04:24:48.637Z,21.40
2023-04-08T04:27:15.436Z,22.47
2023-04-08T04:29:42.050Z,21.33
2023-04-08T04:32:08.657Z,24.10
2023-04-08T04:34:34.900Z,22.67
2023-04-08T04:37:01.132Z,22.73
2023-04-08T04:39:27.364Z,22.17
2023-04-08T04:41:53.598Z,22.97
2023-04-08T04:44:19.892Z,21.33
2023-04-08T04:46:46.196Z,23.30
2023-04-08T04:49:12.711Z,21.93
2023-04-08T04:51:38.983Z,22.87
2023-04-08T04:54:05.404Z,22.37
2023-04-08T04:56:31.672Z,21.87
2023-04-08T04:58:58.013Z,23.13
2023-04-08T05:01:24.407Z,22.13
2023-04-08T05:03:50.918Z,22.43
2023-04-08T05:06:17.188Z,21.87
2023-04-08T05:08:43.470Z,23.00
2023-04-08T05:11:10.349Z,23.50
2023-04-08T05:13:36.596Z,22.90
2023-04-08T05:16:02.850Z,22.07
2023-04-08T05:18:29.121Z,20.80
2023-04-08T05:20:55.489Z,22.33
2023-04-08T05:23:21.724Z,22.53
2023-04-08T05:25:47.964Z,23.40
2023-04-08T05:28:14.198Z,22.43
2023-04-08T05:30:40.790Z,23.23
2023-04-08T05:33:07.099Z,23.00
2023-04-08T05:35:33.517Z,23.90
2023-04-08T05:37:59.743Z,21.83
2023-04-08T05:40:27.187Z,23.57
2023-04-08T05:42:53.442Z,23.70
2023-04-08T05:45:19.691Z,22.70
2023-04-08T05:47:46.046Z,24.13
2023-04-08T05:50:12.412Z,23.73
2023-04-08T05:52:42.700Z,24.57
2023-04-08T05:55:09.076Z,23.73
2023-04-08T05:57:35.313Z,22.63
2023-04-08T06:00:01.665Z,24.13
2023-04-08T06:02:28.395Z,23.37
2023-04-08T06:04:54.877Z,24.83
2023-04-08T06:07:21.210Z,24.27
2023-04-08T06:09:47.448Z,24.30
2023-04-08T06:12:13.762Z,23.90
2023-04-08T06:14:40.435Z,24.20
2023-04-08T06:17:06.697Z,23.53
2023-04-08T06:19:33.041Z,24.23
2023-04-08T06:21:59.359Z,25.30
2023-04-08T06:24:27.323Z,25.20
2023-04-08T06:26:53.712Z,24.47
2023-04-08T06:29:21.053Z,24.80
2023-04-08T06:31:47.525Z,25.53
2023-04-08T06:34:13.801Z,24.83
2023-04-08T06:36:40.085Z,25.77
2023-04-08T06:39:06.649Z,24.80
2023-04-08T06:41:32.925Z,25.30
2023-04-08T06:43:59.213Z,25.23
2023-04-08T06:46:25.701Z,25.10
2023-04-08T06:48:52.277Z,25.37
2023-04-08T06:51:18.766Z,25.63
2023-04-08T06:53:45.099Z,25.77
2023-04-08T06:56:11.429Z,26.27
2023-04-08T06:58:37.746Z,26.30
2023-04-08T07:01:04.033Z,23.87
2023-04-08T07:03:30.753Z,25.03
2023-04-08T07:05:57.101Z,25.13
2023-04-08T07:08:23.386Z,26.73
2023-04-08T07:10:49.781Z,24.97
2023-04-08T07:13:17.430Z,25.47
2023-04-08T07:15:43.744Z,25.07
2023-04-08T07:18:10.575Z,26.60
2023-04-08T07:20:38.432Z,25.53
2023-04-08T07:23:05.112Z,25.30
2023-04-08T07:25:33.210Z,24.90
2023-04-08T07:27:59.463Z,25.93
2023-04-08T07:30:25.763Z,26.10
2023-04-08T07:32:52.477Z,25.77
2023-04-08T07:35:24.230Z,23.50
2023-04-08T07:37:51.358Z,24.67
2023-04-08T07:40:17.652Z,24.87
2023-04-08T07:42:43.908Z,25.20
2023-04-08T07:45:10.444Z,24.80
2023-04-08T07:47:36.893Z,25.47
2023-04-08T07:50:03.931Z,24.50
2023-04-08T07:52:30.602Z,25.03
2023-04-08T07:54:56.884Z,23.43
2023-04-08T07:57:23.384Z,23.70
2023-04-08T07:59:49.756Z,23.70
2023-04-08T08:02:16.084Z,24.03
2023-04-08T08:04:42.492Z,23.53
2023-04-08T08:07:08.782Z,23.40
2023-04-08T08:09:35.237Z,24.83
2023-04-08T08:12:01.501Z,22.90
2023-04-08T08:14:27.853Z,23.77
2023-04-08T08:16:54.355Z,22.43
2023-04-08T08:19:20.929Z,23.07
2023-04-08T08:21:47.225Z,24.10
2023-04-08T08:24:13.533Z,22.23
2023-04-08T08:26:40.517Z,24.00
2023-04-08T08:29:08.618Z,22.50
2023-04-08T08:31:35.338Z,23.40
2023-04-08T08:34:01.745Z,22.80
2023-04-08T08:36:28.081Z,23.27
2023-04-08T08:38:54.380Z,22.70
2023-04-08T08:41:21.170Z,22.87
2023-04-08T08:43:47.470Z,24.93
2023-04-08T08:46:16.026Z,22.37
2023-04-08T08:48:42.393Z,24.23
2023-04-08T08:51:12.056Z,22.87
2023-04-08T08:53:38.659Z,24.07
2023-04-08T08:56:17.696Z,22.70
2023-04-08T08:58:44.480Z,21.60
2023-04-08T09:01:29.491Z,23.20
2023-04-08T09:04:16.973Z,24.07
2023-04-08T09:06:44.459Z,23.40
2023-04-08T09:09:10.817Z,22.07
2023-04-08T09:11:38.562Z,22.47
2023-04-08T09:14:06.130Z,22.27
2023-04-08T09:16:32.903Z,22.63
2023-04-08T09:19:17.472Z,21.67
2023-04-08T09:21:43.814Z,21.53
2023-04-08T09:24:26.670Z,22.17
2023-04-08T09:26:52.897Z,21.37
2023-04-08T09:31:55.986Z,23.27
2023-04-08T09:34:23.410Z,22.47
2023-04-08T09:36:50.436Z,21.50
2023-04-08T09:39:16.725Z,22.23
2023-04-08T09:41:43.392Z,22.57
2023-04-08T09:44:12.801Z,22.20
2023-04-08T09:46:54.423Z,22.80
2023-04-08T09:49:34.205Z,22.57
2023-04-08T09:52:21.273Z,20.73
2023-04-08T09:54:47.534Z,21.80
2023-04-08T09:57:16.328Z,21.80
2023-04-08T09:59:45.889Z,20.50
2023-04-08T10:02:16.869Z,21.57
2023-04-08T10:04:43.848Z,21.73
2023-04-08T10:07:10.194Z,21.63
2023-04-08T10:09:38.594Z,20.73
2023-04-08T10:12:05.274Z,20.80
2023-04-08T10:14:32.556Z,20.40
2023-04-08T10:17:26.205Z,20.97
2023-04-08T10:19:52.568Z,20.47
2023-04-08T10:22:33.858Z,19.90
2023-04-08T10:25:15.505Z,18.33
2023-04-08T10:27:42.182Z,19.83
2023-04-08T10:30:27.292Z,19.57
2023-04-08T10:32:57.467Z,19.60
2023-04-08T10:35:35.625Z,19.53
2023-04-08T10:38:02.242Z,20.17
2023-04-08T10:40:28.520Z,21.00
2023-04-08T10:42:55.602Z,21.03
2023-04-08T10:45:22.174Z,19.90
2023-04-08T10:47:48.548Z,19.00
2023-04-08T10:50:15.888Z,20.00
2023-04-08T10:52:48.863Z,19.10
2023-04-08T10:55:16.551Z,19.67
2023-04-08T10:57:42.769Z,17.73
2023-04-08T11:00:12.338Z,19.17
2023-04-08T11:02:38.752Z,18.30
2023-04-08T11:05:05.289Z,18.17
2023-04-08T11:07:31.593Z,18.47
2023-04-08T11:09:57.845Z,18.13
2023-04-08T11:12:24.069Z,17.33
2023-04-08T11:14:52.539Z,18.97
2023-04-08T11:17:18.866Z,17.83
2023-04-08T11:19:46.178Z,18.50
2023-04-08T11:22:12.801Z,17.00
2023-04-08T11:24:39.431Z,17.47
2023-04-08T11:27:08.833Z,17.90
2023-04-08T11:29:36.024Z,17.53
2023-04-08T11:32:02.325Z,17.07
2023-04-08T11:34:28.712Z,16.87
2023-04-08T11:36:56.754Z,17.50
2023-04-08T11:39:23.588Z,17.57
2023-04-08T11:41:50.070Z,17.83
2023-04-08T11:44:16.396Z,17.10
2023-04-08T11:46:52.122Z,16.70
2023-04-08T11:49:18.531Z,17.43
2023-04-08T11:51:55.541Z,16.70
2023-04-08T11:54:32.342Z,16.97
2023-04-08T11:56:59.183Z,17.13
2023-04-08T11:59:28.219Z,16.73
2023-04-08T12:01:55.565Z,17.27
2023-04-08T12:04:22.064Z,17.00
2023-04-08T12:06:48.418Z,16.23
2023-04-08T12:09:14.651Z,16.70
2023-04-08T12:11:41.221Z,16.53
2023-04-08T12:14:07.495Z,15.93
2023-04-08T12:16:33.819Z,14.97
2023-04-08T12:19:00.285Z,15.93
2023-04-08T12:21:27.835Z,17.00
2023-04-08T12:23:54.211Z,16.43
2023-04-08T12:26:20.423Z,16.57
2023-04-08T12:28:46.925Z,16.73
2023-04-08T12:31:13.236Z,14.90
2023-04-08T12:33:39.488Z,15.23
2023-04-08T12:36:05.872Z,15.57
2023-04-08T12:38:33.447Z,15.23
2023-04-08T12:40:59.771Z,15.53
2023-04-08T12:43:26.045Z,15.00
2023-04-08T12:45:52.325Z,13.90
2023-04-08T12:48:18.584Z,13.97
2023-04-08T12:50:44.902Z,13.37
2023-04-08T12:53:11.291Z,14.20
2023-04-08T12:55:37.602Z,14.33
2023-04-08T12:58:03.943Z,14.60
2023-04-08T13:00:30.332Z,14.07
2023-04-08T13:02:56.702Z,13.53
2023-04-08T13:05:32.837Z,12.63
2023-04-08T13:08:08.836Z,12.50
2023-04-08T13:10:35.280Z,12.10
2023-04-08T13:13:01.608Z,12.17
2023-04-08T13:15:28.256Z,11.83
2023-04-08T13:17:54.651Z,11.57
2023-04-08T13:20:25.122Z,11.53
2023-04-08T13:22:52.513Z,10.80
2023-04-08T13:25:18.804Z,10.37
2023-04-08T13:27:45.804Z,10.10
2023-04-08T13:30:12.367Z,11.03
2023-04-08T13:32:38.707Z,11.40
2023-04-08T13:35:05.252Z,10.73
2023-04-08T13:37:31.509Z,11.53
2023-04-08T13:39:57.842Z,12.10
2023-04-08T13:42:24.152Z,11.50
2023-04-08T13:44:50.455Z,11.77
2023-04-08T13:47:17.249Z,12.37
2023-04-08T13:49:43.628Z,11.57
2023-04-08T13:52:09.945Z,10.87
2023-04-08T13:54:36.335Z,9.60
2023-04-08T13:57:02.642Z,10.80
2023-04-08T13:59:28.991Z,10.23
2023-04-08T14:01:55.737Z,10.43
2023-04-08T14:04:22.557Z,10.60
2023-04-08T14:06:51.027Z,10.47
2023-04-08T14:09:17.776Z,10.50
2023-04-08T14:11:44.126Z,10.60
2023-04-08T14:14:10.431Z,10.73
2023-04-08T14:16:36.739Z,10.80
2023-04-08T14:19:04.216Z,10.00
2023-04-08T14:21:31.771Z,10.33
2023-04-08T14:23:58.029Z,9.50
2023-04-08T14:26:24.257Z,9.53
2023-04-08T14:28:50.768Z,9.20
2023-04-08T14:31:17.246Z,10.27
2023-04-08T14:33:43.572Z,10.00
2023-04-08T14:36:10.039Z,9.40
2023-04-08T14:38:36.537Z,9.87
2023-04-08T14:41:02.870Z,9.50
2023-04-08T14:43:29.122Z,9.60
2023-04-08T14:45:55.413Z,10.03
2023-04-08T14:48:21.781Z,10.80
2023-04-08T14:50:48.052Z,10.87
2023-04-08T14:53:14.318Z,10.27
2023-04-08T14:55:40.592Z,9.63
2023-04-08T14:58:06.899Z,11.00
2023-04-08T15:00:33.230Z,10.43
2023-04-08T15:02:59.718Z,10.47
2023-04-08T15:05:26.043Z,11.03
2023-04-08T15:07:52.423Z,10.70
2023-04-08T15:10:18.643Z,10.00
2023-04-08T15:12:44.870Z,10.67
2023-04-08T15:15:11.270Z,10.13
2023-04-08T15:17:37.805Z,10.07
2023-04-08T15:20:04.338Z,9.83
2023-04-08T15:22:30.571Z,10.50
2023-04-08T15:24:56.825Z,9.93
2023-04-08T15:27:23.117Z,9.07
2023-04-08T15:29:49.416Z,9.30
2023-04-08T15:32:15.735Z,9.00
2023-04-08T15:34:42.031Z,9.60
2023-04-08T15:37:08.333Z,8.90
2023-04-08T15:39:34.594Z,9.43
2023-04-08T15:42:01.472Z,10.13
2023-04-08T15:44:30.459Z,9.80
2023-04-08T15:46:56.730Z,9.50
2023-04-08T15:49:22.993Z,9.77
2023-04-08T15:51:50.956Z,10.00
2023-04-08T15:54:17.382Z,9.77
2023-04-08T15:56:45.051Z,9.00
2023-04-08T15:59:11.334Z,9.40
2023-04-08T16:01:37.608Z,10.13
2023-04-08T16:04:04.179Z,9.87
2023-04-08T16:06:30.500Z,10.17
2023-04-08T16:08:56.800Z,9.33
2023-04-08T16:11:23.782Z,9.27
2023-04-08T16:13:50.094Z,9.70
2023-04-08T16:16:16.534Z,9.37
2023-04-08T16:18:45.446Z,8.87
2023-04-08T16:21:13.119Z,9.37
2023-04-08T16:23:39.414Z,9.27
2023-04-08T16:26:07.949Z,8.80
2023-04-08T16:28:34.674Z,9.20
2023-04-08T16:31:00.939Z,8.93
2023-04-08T16:33:30.750Z,9.33
2023-04-08T16:35:57.720Z,9.03
2023-04-08T16:38:24.536Z,8.90
2023-04-08T16:40:51.170Z,9.23
2023-04-08T16:43:17.464Z,8.90
2023-04-08T16:45:43.819Z,9.50
2023-04-08T16:48:10.136Z,9.80
2023-04-08T16:50:39.631Z,9.53
2023-04-08T16:53:06.013Z,9.60
2023-04-08T16:55:33.692Z,9.67
2023-04-08T16:58:01.149Z,10.10
2023-04-08T17:00:27.717Z,10.93
2023-04-08T17:02:56.861Z,12.00
2023-04-08T17:05:23.271Z,12.83
2023-04-08T17:07:49.540Z,12.67
2023-04-08T17:10:16.034Z,12.83
2023-04-08T17:12:42.271Z,13.60
2023-04-08T17:15:08.956Z,13.93
2023-04-08T17:17:35.349Z,14.20
2023-04-08T17:20:01.723Z,14.53
2023-04-08T17:22:27.960Z,14.50
2023-04-08T17:24:54.201Z,14.70
2023-04-08T17:27:21.159Z,14.43
2023-04-08T17:29:47.436Z,14.90
2023-04-08T17:32:13.679Z,15.43
2023-04-08T17:34:40.985Z,15.70
2023-04-08T17:37:07.675Z,15.80
2023-04-08T17:39:33.911Z,16.80
2023-04-08T17:42:02.034Z,16.13
2023-04-08T17:44:29.908Z,17.50
2023-04-08T17:46:56.446Z,16.10
2023-04-08T17:49:22.912Z,17.00
2023-04-08T17:51:49.420Z,17.23
2023-04-08T17:54:17.107Z,17.80
2023-04-08T17:56:44.964Z,18.20
2023-04-08T17:59:12.145Z,17.37
2023-04-08T18:01:38.698Z,18.87
2023-04-08T18:04:08.647Z,17.60
2023-04-08T18:06:35.092Z,18.00
2023-04-08T18:09:03.604Z,18.30
2023-04-08T18:11:29.987Z,19.57
2023-04-08T18:13:56.232Z,18.73
2023-04-08T18:16:22.980Z,19.80
2023-04-08T18:18:49.290Z,19.27
2023-04-08T18:21:17.926Z,20.30
2023-04-08T18:23:46.965Z,20.40
2023-04-08T18:26:13.272Z,19.73
2023-04-08T18:28:39.644Z,20.87
2023-04-08T18:31:06.237Z,19.73
2023-04-08T18:33:32.567Z,21.53
2023-04-08T18:36:05.736Z,20.90
2023-04-08T18:38:32.003Z,21.80
2023-04-08T18:40:58.250Z,20.60
2023-04-08T18:43:24.546Z,20.80
2023-04-08T18:45:50.886Z,19.57
2023-04-08T18:48:17.177Z,20.77
2023-04-08T18:50:44.199Z,20.67
2023-04-08T18:53:10.488Z,19.93
2023-04-08T18:55:38.682Z,19.97
2023-04-08T18:58:05.123Z,19.27
2023-04-08T19:00:31.550Z,19.10
2023-04-08T19:02:58.129Z,18.70
2023-04-08T19:05:24.710Z,20.10
2023-04-08T19:07:50.964Z,18.93
2023-04-08T19:10:17.210Z,18.50
2023-04-08T19:12:43.454Z,18.63
2023-04-08T19:15:09.849Z,18.37
2023-04-08T19:17:36.094Z,19.03
2023-04-08T19:20:03.272Z,18.03
2023-04-08T19:22:29.564Z,18.20
2023-04-08T19:24:55.951Z,17.77
2023-04-08T19:27:22.203Z,18.60
2023-04-08T19:29:48.535Z,17.83
2023-04-08T19:32:15.492Z,17.43
2023-04-08T19:34:42.334Z,16.83
2023-04-08T19:37:08.657Z,18.37
2023-04-08T19:39:35.452Z,17.57
2023-04-08T19:42:01.906Z,17.47
2023-04-08T19:44:28.245Z,17.00
2023-04-08T19:46:57.346Z,17.03
2023-04-08T19:49:24.157Z,16.70
2023-04-08T19:51:50.949Z,17.10
2023-04-08T19:54:17.490Z,17.60
2023-04-08T19:56:44.095Z,18.17
2023-04-08T19:59:13.539Z,16.77
2023-04-08T20:01:40.581Z,16.37
2023-04-08T20:04:07.013Z,18.83
2023-04-08T20:06:34.732Z,17.73
2023-04-08T20:09:05.308Z,17.60
2023-04-08T20:11:32.262Z,18.53
2023-04-08T20:13:58.644Z,19.03
2023-04-08T20:16:24.938Z,18.53
2023-04-08T20:18:51.516Z,17.90
2023-04-08T20:21:18.131Z,18.50
2023-04-08T20:23:44.841Z,18.60
2023-04-08T20:26:12.284Z,18.63
2023-04-08T20:28:45.315Z,18.60
2023-04-08T20:31:12.019Z,19.77
2023-04-08T20:33:43.498Z,19.53
2023-04-08T20:36:13.310Z,19.00
2023-04-08T20:38:39.909Z,20.30
2023-04-08T20:41:06.547Z,20.57
2023-04-08T20:43:32.844Z,22.13
2023-04-08T20:45:59.449Z,20.07
2023-04-08T20:48:25.798Z,20.50
2023-04-08T20:50:52.062Z,20.93
2023-04-08T20:53:19.582Z,20.90
2023-04-08T20:55:46.012Z,20.73
2023-04-08T20:58:12.273Z,21.13
2023-04-08T21:00:38.646Z,21.67
2023-04-08T21:03:04.985Z,21.50
2023-04-08T21:05:31.524Z,21.67
2023-04-08T21:07:57.818Z,21.13
2023-04-08T21:10:24.116Z,22.93
2023-04-08T21:12:50.400Z,22.77
2023-04-08T21:15:16.728Z,21.00
2023-04-08T21:17:43.041Z,21.87
2023-04-08T21:20:09.732Z,22.63
2023-04-08T21:22:36.013Z,22.27
2023-04-08T21:25:02.299Z,22.03
2023-04-08T21:27:28.663Z,20.30
2023-04-08T21:29:55.198Z,21.00
2023-04-08T21:32:21.458Z,21.53
2023-04-08T21:34:47.762Z,21.80
2023-04-08T21:37:14.071Z,22.30
2023-04-08T21:39:40.387Z,21.73
2023-04-08T21:42:06.839Z,22.40
2023-04-08T21:44:33.321Z,22.07
2023-04-08T21:47:01.691Z,22.80
2023-04-08T21:49:29.799Z,23.13
2023-04-08T21:51:56.207Z,24.50
2023-04-08T21:54:22.503Z,24.97
2023-04-08T21:56:48.769Z,24.27
2023-04-08T21:59:15.020Z,23.87
2023-04-08T22:01:41.434Z,23.63
2023-04-08T22:04:07.828Z,23.60
2023-04-08T22:06:34.232Z,24.53
2023-04-08T22:09:00.583Z,24.43
2023-04-08T22:11:27.017Z,22.97
2023-04-08T22:13:53.707Z,24.10
2023-04-08T22:16:19.987Z,24.90
2023-04-08T22:18:46.663Z,25.10
2023-04-08T22:21:12.931Z,23.23
2023-04-08T22:23:39.266Z,23.60
2023-04-08T22:26:05.580Z,23.80
2023-04-08T22:28:34.149Z,24.93
2023-04-08T22:31:01.183Z,24.20
2023-04-08T22:33:30.403Z,24.80
2023-04-08T22:35:57.454Z,24.37
2023-04-08T22:38:23.873Z,25.53
2023-04-08T22:40:50.379Z,25.50
2023-04-08T22:43:16.613Z,23.97
2023-04-08T22:45:42.897Z,24.70
2023-04-08T22:48:09.163Z,24.43
2023-04-08T22:50:35.731Z,24.77
2023-04-08T22:53:02.027Z,24.80
2023-04-08T22:55:28.266Z,24.47
2023-04-08T22:57:54.516Z,22.77
2023-04-08T23:00:21.169Z,23.90
2023-04-08T23:02:47.710Z,24.23
2023-04-08T23:05:14.126Z,23.80
2023-04-08T23:07:40.364Z,24.80
2023-04-08T23:10:07.102Z,25.20
2023-04-08T23:12:33.423Z,22.93
2023-04-08T23:14:59.732Z,22.37
2023-04-08T23:17:26.060Z,24.43
2023-04-08T23:19:52.365Z,24.27
2023-04-08T23:22:18.616Z,23.70
2023-04-08T23:24:44.869Z,24.17
2023-04-08T23:27:13.392Z,24.07
2023-04-08T23:29:39.689Z,22.83
2023-04-08T23:32:05.997Z,24.37
2023-04-08T23:34:35.205Z,24.93
2023-04-08T23:37:01.468Z,24.27
2023-04-08T23:39:27.740Z,24.50
2023-04-08T23:41:54.005Z,23.60
2023-04-08T23:44:21.384Z,23.53
2023-04-08T23:46:47.690Z,24.30
2023-04-08T23:49:13.963Z,23.53
2023-04-08T23:51:40.317Z,25.40
2023-04-08T23:54:06.607Z,23.63
2023-04-08T23:56:32.958Z,23.80
2023-04-08T23:58:59.359Z,24.00
